Time;durP1;ratioP1;P1;durP2;ratioP2;P2;SDS_P1;SDS_P2;PMS_P1;PMS_P2;Temp;Humidity;BMP_temperature;BMP_pressure;BME280_temperature;BME280_humidity;BME280_pressure;Samples;Min_cycle;Max_cycle;Signal;HPM_P1;HPM_P2
2022/04/07 00:00:39;;;;;;;1.60;0.93;;;12.60;69.90;;;;;;5012220;28;20038;-51
2022/04/07 00:03:06;;;;;;;1.38;1.27;;;12.60;70.00;;;;;;5028168;28;20101;-50
2022/04/07 00:05:32;;;;;;;1.17;1.10;;;12.60;70.10;;;;;;5031718;28;20041;-50
2022/04/07 00:07:59;;;;;;;2.40;0.90;;;12.60;70.00;;;;;;5006445;28;20509;-50
2022/04/07 00:10:31;;;;;;;1.57;1.40;;;12.60;70.00;;;;;;5008608;28;20042;-49
2022/04/07 00:13:00;;;;;;;2.17;1.40;;;12.60;69.80;;;;;;5012304;28;20288;-47
2022/04/07 00:15:27;;;;;;;1.25;1.15;;;12.60;69.70;;;;;;5010833;28;20042;-50
2022/04/07 00:17:54;;;;;;;4.05;1.90;;;12.60;69.60;;;;;;5007085;28;20493;-50
2022/04/07 00:20:29;;;;;;;1.45;1.35;;;12.60;69.60;;;;;;5011898;28;20038;-47
2022/04/07 00:22:57;;;;;;;1.50;1.40;;;12.60;69.50;;;;;;5011805;28;20038;-49
2022/04/07 00:25:30;;;;;;;2.53;1.98;;;12.60;69.50;;;;;;5006212;28;20044;-50
2022/04/07 00:28:00;;;;;;;2.22;1.85;;;12.60;69.40;;;;;;5005228;28;20493;-51
2022/04/07 00:30:30;;;;;;;;;;;12.60;69.30;;;;;;5010178;28;20045;-51
2022/04/07 00:32:56;;;;;;;2.70;1.45;;;12.60;69.20;;;;;;5010813;28;20352;-52
2022/04/07 00:35:25;;;;;;;2.65;1.35;;;12.60;68.80;;;;;;5007535;28;20079;-49
2022/04/07 00:37:51;;;;;;;2.33;1.10;;;12.70;68.70;;;;;;5011279;28;20088;-48
2022/04/07 00:40:18;;;;;;;4.15;1.48;;;12.60;68.70;;;;;;5021150;28;20045;-50
2022/04/07 00:42:50;;;;;;;2.63;1.05;;;12.60;68.60;;;;;;5021329;28;20121;-49
2022/04/07 00:45:21;;;;;;;4.50;1.30;;;12.60;68.50;;;;;;5009589;28;20445;-47
2022/04/07 00:47:52;;;;;;;1.67;1.02;;;12.70;68.60;;;;;;5005341;28;20046;-50
2022/04/07 00:50:21;;;;;;;2.42;1.25;;;12.70;68.50;;;;;;5020988;28;20608;-51
2022/04/07 00:52:59;;;;;;;3.75;1.23;;;12.70;68.50;;;;;;5030797;28;20719;-47
2022/04/07 00:55:26;;;;;;;2.78;1.33;;;12.60;68.30;;;;;;5008347;28;20050;-48
2022/04/07 00:57:53;;;;;;;2.25;1.05;;;12.70;68.30;;;;;;5004969;28;20065;-49
2022/04/07 01:00:20;;;;;;;2.58;1.40;;;12.70;68.30;;;;;;5029263;28;20037;-50
2022/04/07 01:02:47;;;;;;;2.20;1.13;;;12.70;68.20;;;;;;5026950;28;20131;-51
2022/04/07 01:05:23;;;;;;;3.00;1.10;;;12.70;68.10;;;;;;5003734;28;20042;-51
2022/04/07 01:07:50;;;;;;;2.47;1.23;;;12.70;68.00;;;;;;5010600;28;20049;-51
2022/04/07 01:10:19;;;;;;;3.70;1.25;;;12.80;68.00;;;;;;5022423;28;20452;-51
2022/04/07 01:12:49;;;;;;;1.98;1.00;;;12.80;68.00;;;;;;5014908;28;20539;-49
2022/04/07 01:15:16;;;;;;;1.70;1.15;;;12.80;67.90;;;;;;5011551;28;20033;-49
2022/04/07 01:17:42;;;;;;;2.28;0.90;;;12.80;67.80;;;;;;5009247;28;20038;-48
2022/04/07 01:20:10;;;;;;;1.50;0.82;;;12.80;67.80;;;;;;5011156;28;20521;-47
2022/04/07 01:22:44;;;;;;;1.42;1.00;;;12.80;67.60;;;;;;5005858;28;20088;-48
2022/04/07 01:25:13;;;;;;;2.40;0.90;;;12.90;67.80;;;;;;5008183;28;20069;-50
2022/04/07 01:27:41;;;;;;;1.98;0.70;;;12.90;67.50;;;;;;5014767;28;20052;-48
2022/04/07 01:30:17;;;;;;;3.28;1.00;;;13.00;67.70;;;;;;5012962;28;20704;-49
2022/04/07 01:32:50;;;;;;;2.95;1.50;;;13.00;67.50;;;;;;5010418;28;20046;-49
2022/04/07 01:35:23;;;;;;;2.33;1.00;;;13.00;67.50;;;;;;5010264;28;20057;-47
2022/04/07 01:37:57;;;;;;;1.10;1.00;;;13.00;67.40;;;;;;4976997;28;20148;-51
2022/04/07 01:40:33;;;;;;;1.52;1.30;;;13.10;67.30;;;;;;5007577;28;20469;-52
2022/04/07 01:43:04;;;;;;;2.75;1.17;;;13.10;67.40;;;;;;4999996;28;20037;-47
2022/04/07 01:45:36;;;;;;;1.65;1.50;;;13.10;67.30;;;;;;5009253;28;20034;-49
2022/04/07 01:48:07;;;;;;;1.30;0.95;;;13.10;67.10;;;;;;5009040;28;20121;-51
2022/04/07 01:50:39;;;;;;;2.15;1.10;;;13.20;67.20;;;;;;5017979;28;20112;-48
2022/04/07 01:53:06;;;;;;;3.10;1.55;;;13.20;67.20;;;;;;5007711;28;20045;-52
2022/04/07 01:55:33;;;;;;;3.17;1.20;;;13.20;67.30;;;;;;5020775;28;20064;-49
2022/04/07 01:58:00;;;;;;;2.22;1.10;;;13.20;67.30;;;;;;5028871;28;20037;-49
2022/04/07 02:00:29;;;;;;;2.47;1.60;;;13.20;67.50;;;;;;5004977;28;20037;-51
2022/04/07 02:02:56;;;;;;;2.15;1.10;;;13.20;67.50;;;;;;5005338;28;20050;-50
2022/04/07 02:05:25;;;;;;;3.92;1.30;;;13.20;67.60;;;;;;5019955;28;20092;-48
2022/04/07 02:07:52;;;;;;;1.45;1.10;;;13.20;67.70;;;;;;5029202;28;20107;-50
2022/04/07 02:10:19;;;;;;;1.75;1.33;;;13.20;67.90;;;;;;5008920;28;20046;-51
2022/04/07 02:12:46;;;;;;;1.98;1.33;;;13.20;68.00;;;;;;5008945;28;20100;-49
2022/04/07 02:15:13;;;;;;;1.30;1.00;;;13.20;68.10;;;;;;5009945;28;20065;-51
2022/04/07 02:17:44;;;;;;;2.63;1.13;;;13.20;68.30;;;;;;5008525;28;20517;-50
2022/04/07 02:20:12;;;;;;;2.70;1.55;;;13.20;68.30;;;;;;5000928;28;20430;-47
2022/04/07 02:22:38;;;;;;;2.42;1.30;;;13.20;68.40;;;;;;5008986;28;20441;-46
2022/04/07 02:25:08;;;;;;;2.22;1.17;;;13.20;68.50;;;;;;5009349;28;20100;-48
2022/04/07 02:27:40;;;;;;;1.45;1.35;;;13.20;68.60;;;;;;5006327;28;20050;-50
2022/04/07 02:30:09;;;;;;;2.45;1.50;;;13.10;68.80;;;;;;4987428;28;20096;-51
2022/04/07 02:32:38;;;;;;;2.65;1.33;;;13.10;68.80;;;;;;5001438;28;20060;-52
2022/04/07 02:35:10;;;;;;;3.33;1.48;;;13.10;68.60;;;;;;4992008;28;20058;-50
2022/04/07 02:37:42;;;;;;;2.28;1.13;;;13.10;68.70;;;;;;5000534;28;20069;-51
2022/04/07 02:40:14;;;;;;;3.30;1.45;;;13.10;68.80;;;;;;5007976;28;20061;-50
2022/04/07 02:42:41;;;;;;;2.40;1.03;;;13.10;68.80;;;;;;5013857;28;20088;-47
2022/04/07 02:45:08;;;;;;;1.42;1.08;;;13.00;68.70;;;;;;5029686;28;20277;-47
2022/04/07 02:47:39;;;;;;;1.83;1.08;;;13.00;68.60;;;;;;5018699;28;20037;-49
2022/04/07 02:50:10;;;;;;;2.55;1.00;;;13.10;68.60;;;;;;5007621;28;20065;-49
2022/04/07 02:52:37;;;;;;;1.92;1.20;;;13.10;68.60;;;;;;5008419;28;20054;-47
2022/04/07 02:55:09;;;;;;;1.52;1.23;;;13.10;69.10;;;;;;5007684;28;20117;-50
2022/04/07 02:57:41;;;;;;;2.72;1.20;;;13.00;68.50;;;;;;4994697;28;20050;-49
2022/04/07 03:00:08;;;;;;;1.95;0.82;;;13.10;68.30;;;;;;5008454;28;20512;-47
2022/04/07 03:02:38;;;;;;;2.92;1.20;;;13.10;68.30;;;;;;5010911;28;20044;-48
2022/04/07 03:05:15;;;;;;;2.67;0.90;;;13.10;68.00;;;;;;5014132;28;20148;-48
2022/04/07 03:07:45;;;;;;;2.55;0.95;;;13.10;67.90;;;;;;5007405;28;20580;-51
2022/04/07 03:10:15;;;;;;;1.33;0.77;;;13.20;67.80;;;;;;5013565;28;20128;-49
2022/04/07 03:12:44;;;;;;;2.08;1.10;;;13.20;67.70;;;;;;5008145;28;20049;-48
2022/04/07 03:15:11;;;;;;;2.78;1.40;;;13.20;67.50;;;;;;5017202;28;20045;-51
2022/04/07 03:17:38;;;;;;;4.05;1.00;;;13.20;67.20;;;;;;5007030;28;20034;-47
2022/04/07 03:20:08;;;;;;;3.00;1.27;;;13.20;67.20;;;;;;5020591;28;20091;-48
2022/04/07 03:22:35;;;;;;;2.67;0.98;;;13.20;66.80;;;;;;5013402;28;20057;-49
2022/04/07 03:25:04;;;;;;;3.80;1.00;;;13.20;66.70;;;;;;5008503;28;20083;-50
2022/04/07 03:27:35;;;;;;;6.13;1.65;;;13.20;66.50;;;;;;5015413;28;20049;-50
2022/04/07 03:30:12;;;;;;;2.78;1.10;;;13.20;66.40;;;;;;5030963;28;20046;-51
2022/04/07 03:32:39;;;;;;;2.90;1.08;;;13.20;66.10;;;;;;5010532;28;20081;-47
2022/04/07 03:35:06;;;;;;;4.78;1.40;;;13.20;66.00;;;;;;5007400;28;20413;-50
2022/04/07 03:37:35;;;;;;;1.30;0.85;;;13.20;65.80;;;;;;5003793;28;20061;-47
2022/04/07 03:40:04;;;;;;;4.90;1.40;;;13.20;65.90;;;;;;5027889;28;20152;-49
2022/04/07 03:42:30;;;;;;;3.33;1.10;;;13.20;66.00;;;;;;5022607;28;20056;-49
2022/04/07 03:45:01;;;;;;;3.83;1.35;;;13.30;65.90;;;;;;5009117;28;20030;-51
2022/04/07 03:47:30;;;;;;;3.28;1.30;;;13.30;65.90;;;;;;5012051;28;20101;-49
2022/04/07 03:49:57;;;;;;;2.50;1.00;;;13.30;65.90;;;;;;5008929;28;20084;-50
2022/04/07 03:52:26;;;;;;;2.30;1.20;;;13.30;65.70;;;;;;5009619;28;20514;-48
2022/04/07 03:54:53;;;;;;;2.78;1.10;;;13.40;65.70;;;;;;5008840;28;20046;-49
2022/04/07 03:57:25;;;;;;;2.38;0.65;;;13.40;65.70;;;;;;5013351;28;20066;-48
2022/04/07 03:59:54;;;;;;;1.27;0.90;;;13.40;65.60;;;;;;5031915;28;20743;-51
2022/04/07 04:02:21;;;;;;;1.75;0.80;;;13.40;65.70;;;;;;5024116;28;20084;-49
2022/04/07 04:04:53;;;;;;;3.00;0.65;;;13.40;65.70;;;;;;5009987;28;20049;-50
2022/04/07 04:07:20;;;;;;;2.10;1.08;;;13.40;65.90;;;;;;5010596;28;20100;-48
2022/04/07 04:09:47;;;;;;;1.90;1.02;;;13.40;66.10;;;;;;5027688;28;20037;-50
2022/04/07 04:12:14;;;;;;;2.70;1.30;;;13.40;66.80;;;;;;5010480;28;20058;-50
2022/04/07 04:14:43;;;;;;;3.72;1.00;;;13.40;66.80;;;;;;5011073;28;20052;-50
2022/04/07 04:17:13;;;;;;;4.05;1.10;;;13.40;67.00;;;;;;5005559;28;20046;-48
2022/04/07 04:19:39;;;;;;;3.05;1.35;;;13.40;67.30;;;;;;5012008;28;20042;-51
2022/04/07 04:22:06;;;;;;;2.33;0.90;;;13.40;67.70;;;;;;5001754;28;20042;-47
2022/04/07 04:24:35;;;;;;;3.08;0.88;;;13.40;68.20;;;;;;5003925;28;20033;-51
2022/04/07 04:27:06;;;;;;;3.17;1.30;;;13.20;68.60;;;;;;4993634;28;20072;-51
2022/04/07 04:29:33;;;;;;;3.35;1.45;;;13.20;68.90;;;;;;5009515;28;20038;-47
2022/04/07 04:32:00;;;;;;;1.92;1.20;;;13.20;69.20;;;;;;5005932;28;20042;-51
2022/04/07 04:34:27;;;;;;;3.70;1.35;;;13.10;69.60;;;;;;5004781;28;21833;-48
2022/04/07 04:36:54;;;;;;;3.13;2.03;;;13.10;70.10;;;;;;5014951;28;20426;-51
2022/04/07 04:39:20;;;;;;;2.72;1.50;;;13.10;70.40;;;;;;4991256;28;20077;-49
2022/04/07 04:41:47;;;;;;;1.67;1.58;;;13.00;70.70;;;;;;5010985;28;20070;-49
2022/04/07 04:44:14;;;;;;;2.42;1.42;;;13.00;71.30;;;;;;5019967;28;20124;-49
2022/04/07 04:46:41;;;;;;;3.58;1.90;;;12.90;71.50;;;;;;5031186;28;20053;-49
2022/04/07 04:49:08;;;;;;;2.95;1.63;;;12.90;71.80;;;;;;5008354;28;20038;-48
2022/04/07 04:51:34;;;;;;;1.08;1.02;;;12.80;71.90;;;;;;5007186;28;20114;-48
2022/04/07 04:54:01;;;;;;;2.83;1.40;;;12.80;72.20;;;;;;5010865;28;20101;-48
2022/04/07 04:56:28;;;;;;;3.15;1.95;;;12.80;72.60;;;;;;5028475;28;20562;-50
2022/04/07 04:58:57;;;;;;;3.03;1.52;;;12.70;72.80;;;;;;5016866;28;20120;-50
2022/04/07 05:01:24;;;;;;;1.90;1.55;;;12.70;72.90;;;;;;5011647;28;20101;-50
2022/04/07 05:03:51;;;;;;;1.63;1.52;;;12.70;73.10;;;;;;5011517;28;20775;-50
2022/04/07 05:06:17;;;;;;;1.85;1.52;;;12.70;73.20;;;;;;5009410;28;20101;-48
2022/04/07 05:08:44;;;;;;;2.03;1.63;;;12.70;73.30;;;;;;5002321;28;20391;-46
2022/04/07 05:11:16;;;;;;;1.83;1.20;;;12.60;73.40;;;;;;5011188;28;20050;-48
2022/04/07 05:13:42;;;;;;;4.50;1.67;;;12.60;73.50;;;;;;5004733;28;20520;-49
2022/04/07 05:16:15;;;;;;;1.30;1.20;;;12.60;73.40;;;;;;5010158;28;20045;-49
2022/04/07 05:18:46;;;;;;;;;;;12.60;73.50;;;;;;5004856;28;20049;-47
2022/04/07 05:21:16;;;;;;;1.38;1.23;;;12.70;74.30;;;;;;5011064;28;19925;-48
2022/04/07 05:23:44;;;;;;;2.15;1.45;;;12.70;73.20;;;;;;5010711;28;20494;-47
2022/04/07 05:26:13;;;;;;;2.63;1.10;;;12.60;73.20;;;;;;5008363;28;20045;-50
2022/04/07 05:28:41;;;;;;;1.95;1.17;;;12.70;73.40;;;;;;5008127;28;20111;-46
2022/04/07 05:31:08;;;;;;;1.95;1.10;;;12.60;73.50;;;;;;5011488;28;20229;-48
2022/04/07 05:33:35;;;;;;;2.53;1.30;;;12.70;73.60;;;;;;5011128;28;20042;-50
2022/04/07 05:36:02;;;;;;;1.63;0.90;;;12.70;73.40;;;;;;5006668;28;20041;-47
2022/04/07 05:38:29;;;;;;;2.22;1.45;;;12.70;73.80;;;;;;5022586;28;20049;-49
2022/04/07 05:40:55;;;;;;;1.45;1.10;;;12.70;73.80;;;;;;5030274;28;20397;-49
2022/04/07 05:43:22;;;;;;;1.48;1.35;;;12.70;73.70;;;;;;5025306;28;20045;-47
2022/04/07 05:45:50;;;;;;;1.23;0.90;;;12.70;73.90;;;;;;5007146;28;20045;-47
2022/04/07 05:48:19;;;;;;;1.13;1.02;;;12.70;73.90;;;;;;5023568;28;20046;-47
2022/04/07 05:50:46;;;;;;;2.50;1.13;;;12.70;73.90;;;;;;5028417;28;20041;-47
2022/04/07 05:53:13;;;;;;;1.98;1.20;;;12.70;74.00;;;;;;5019908;28;20101;-50
2022/04/07 05:55:40;;;;;;;1.13;1.00;;;12.70;74.00;;;;;;5007283;28;20044;-46
2022/04/07 05:58:08;;;;;;;1.58;0.77;;;12.70;74.10;;;;;;5009447;28;20050;-46
2022/04/07 06:00:37;;;;;;;1.85;0.80;;;12.70;74.20;;;;;;5005763;28;20128;-47
2022/04/07 06:03:04;;;;;;;1.65;1.15;;;12.60;74.10;;;;;;5024544;28;20502;-47
2022/04/07 06:05:31;;;;;;;0.88;0.88;;;12.60;74.00;;;;;;5014448;28;20498;-46
2022/04/07 06:08:02;;;;;;;1.95;0.85;;;12.60;74.00;;;;;;5011667;28;20038;-47
2022/04/07 06:10:29;;;;;;;4.13;1.30;;;12.50;74.20;;;;;;5007901;28;20402;-47
2022/04/07 06:12:56;;;;;;;1.13;1.00;;;12.60;74.00;;;;;;5024020;28;20128;-47
2022/04/07 06:15:24;;;;;;;1.27;0.98;;;12.60;74.10;;;;;;5023797;28;20413;-47
2022/04/07 06:17:53;;;;;;;1.77;0.73;;;12.50;73.90;;;;;;5024451;28;20042;-49
2022/04/07 06:20:21;;;;;;;0.77;0.73;;;12.60;73.80;;;;;;5023790;28;20045;-48
2022/04/07 06:22:48;;;;;;;1.33;0.82;;;12.60;73.80;;;;;;5022198;28;20042;-49
2022/04/07 06:25:14;;;;;;;2.53;0.57;;;12.60;73.60;;;;;;5023338;28;20045;-50
2022/04/07 06:27:44;;;;;;;2.05;0.57;;;12.60;73.30;;;;;;5024419;28;20485;-47
2022/04/07 06:30:16;;;;;;;2.28;0.73;;;12.60;73.00;;;;;;5026869;28;20041;-48
2022/04/07 06:32:44;;;;;;;2.45;0.55;;;12.70;73.10;;;;;;5016234;28;20461;-49
2022/04/07 06:35:13;;;;;;;2.20;0.70;;;12.70;72.90;;;;;;5028329;28;20085;-49
2022/04/07 06:37:54;;;;;;;1.30;0.45;;;12.70;72.60;;;;;;5027978;28;20041;-47
2022/04/07 06:40:22;;;;;;;0.93;0.60;;;12.70;72.90;;;;;;5011551;28;20045;-47
2022/04/07 06:42:50;;;;;;;2.22;1.05;;;12.70;72.90;;;;;;5016422;28;20038;-48
2022/04/07 06:45:27;;;;;;;2.15;0.60;;;12.70;72.90;;;;;;5025284;28;20041;-49
2022/04/07 06:47:55;;;;;;;0.93;0.67;;;12.80;73.00;;;;;;5022989;28;20045;-49
2022/04/07 06:50:25;;;;;;;0.85;0.50;;;12.80;72.90;;;;;;5028464;28;20041;-49
2022/04/07 06:52:54;;;;;;;1.10;0.68;;;12.80;73.50;;;;;;5016850;28;20517;-49
2022/04/07 06:55:21;;;;;;;2.42;0.50;;;12.80;72.90;;;;;;5023828;28;20095;-48
2022/04/07 06:58:03;;;;;;;1.23;0.60;;;12.90;73.00;;;;;;5028162;28;20512;-49
2022/04/07 07:00:33;;;;;;;0.60;0.60;;;12.90;73.30;;;;;;5022397;28;20412;-47
2022/04/07 07:03:02;;;;;;;2.22;1.13;;;13.00;72.80;;;;;;5006900;28;20117;-48
2022/04/07 07:05:36;;;;;;;0.70;0.40;;;13.00;72.80;;;;;;5018123;28;20045;-49
2022/04/07 07:08:13;;;;;;;0.55;0.38;;;13.10;72.90;;;;;;5028543;28;20232;-47
2022/04/07 07:10:41;;;;;;;2.50;1.05;;;13.10;72.90;;;;;;5005202;28;20089;-49
2022/04/07 07:13:08;;;;;;;1.35;0.57;;;13.10;72.50;;;;;;5008827;28;20580;-49
2022/04/07 07:15:35;;;;;;;1.52;0.68;;;13.10;72.50;;;;;;5015405;28;20037;-49
2022/04/07 07:18:02;;;;;;;1.27;0.52;;;13.10;72.40;;;;;;5014021;28;20050;-50
2022/04/07 07:20:29;;;;;;;2.50;0.70;;;13.20;72.30;;;;;;5018307;28;20743;-47
2022/04/07 07:23:02;;;;;;;1.10;0.70;;;13.20;72.30;;;;;;5014892;28;20041;-49
2022/04/07 07:25:31;;;;;;;2.20;1.00;;;13.20;72.30;;;;;;5021943;28;20042;-49
2022/04/07 07:27:59;;;;;;;0.63;0.50;;;13.20;72.40;;;;;;5023997;28;20453;-51
2022/04/07 07:30:26;;;;;;;0.75;0.30;;;13.30;72.60;;;;;;5009537;28;20124;-51
2022/04/07 07:32:57;;;;;;;0.95;0.40;;;13.30;72.90;;;;;;5014599;28;20053;-49
2022/04/07 07:35:25;;;;;;;1.23;0.40;;;13.30;73.20;;;;;;5028850;28;20048;-50
2022/04/07 07:37:51;;;;;;;0.57;0.50;;;13.40;73.20;;;;;;5021981;28;20046;-48
2022/04/07 07:40:21;;;;;;;0.40;0.40;;;13.40;72.90;;;;;;4999915;28;20049;-48
2022/04/07 07:42:49;;;;;;;0.82;0.50;;;13.40;72.90;;;;;;5013876;28;20809;-49
2022/04/07 07:45:18;;;;;;;2.75;0.50;;;13.50;72.90;;;;;;5024967;28;20045;-51
2022/04/07 07:48:05;;;;;;;0.55;0.32;;;13.50;72.90;;;;;;4998105;28;20038;-51
2022/04/07 07:50:31;;;;;;;1.17;0.45;;;13.50;73.10;;;;;;5012852;28;20073;-47
2022/04/07 07:53:00;;;;;;;0.50;0.50;;;13.40;73.40;;;;;;5012414;28;20038;-47
2022/04/07 07:55:27;;;;;;;0.25;0.20;;;13.40;73.70;;;;;;4994547;28;20052;-50
2022/04/07 07:57:56;;;;;;;1.35;0.40;;;13.40;73.90;;;;;;5013906;28;20045;-47
2022/04/07 08:00:24;;;;;;;0.40;0.30;;;13.40;74.00;;;;;;5029096;28;20045;-48
2022/04/07 08:02:51;;;;;;;0.10;0.10;;;13.40;74.40;;;;;;5030448;28;20084;-50
2022/04/07 08:05:18;;;;;;;0.65;0.40;;;13.40;74.70;;;;;;5020369;28;20049;-46
2022/04/07 08:07:44;;;;;;;1.40;0.40;;;13.40;74.80;;;;;;5029986;28;20744;-48
2022/04/07 08:10:11;;;;;;;1.25;0.40;;;13.40;74.80;;;;;;5008521;28;20050;-47
2022/04/07 08:12:39;;;;;;;0.35;0.30;;;13.50;75.30;;;;;;5012599;28;20046;-47
2022/04/07 08:15:09;;;;;;;1.17;0.22;;;13.60;75.70;;;;;;5020823;28;20048;-48
2022/04/07 08:17:38;;;;;;;0.50;0.40;;;13.60;76.20;;;;;;5008722;28;20070;-48
2022/04/07 08:20:07;;;;;;;0.35;0.25;;;13.70;75.30;;;;;;5011773;28;20049;-47
2022/04/07 08:22:34;;;;;;;0.30;0.30;;;13.80;75.40;;;;;;5011652;28;20100;-48
2022/04/07 08:25:04;;;;;;;0.52;0.30;;;13.80;75.30;;;;;;5008874;28;20030;-49
2022/04/07 08:27:31;;;;;;;0.65;0.40;;;13.80;75.00;;;;;;5008991;28;20873;-49
2022/04/07 08:29:57;;;;;;;1.02;0.40;;;13.90;74.80;;;;;;5012404;28;20080;-48
2022/04/07 08:32:24;;;;;;;0.63;0.40;;;13.90;75.30;;;;;;5012047;28;20045;-46
2022/04/07 08:34:51;;;;;;;0.60;0.50;;;14.00;74.90;;;;;;5016325;28;20095;-49
2022/04/07 08:37:18;;;;;;;0.40;0.22;;;14.00;74.70;;;;;;5015058;28;20114;-47
2022/04/07 08:39:45;;;;;;;0.45;0.30;;;14.00;74.60;;;;;;5018676;28;20042;-48
2022/04/07 08:42:12;;;;;;;0.80;0.40;;;14.00;74.80;;;;;;5009474;28;20042;-49
2022/04/07 08:44:39;;;;;;;0.73;0.55;;;14.00;74.80;;;;;;5000535;28;20041;-47
2022/04/07 08:47:06;;;;;;;0.70;0.40;;;14.00;74.90;;;;;;5021194;28;20116;-47
2022/04/07 08:49:35;;;;;;;0.50;0.30;;;14.10;75.00;;;;;;5022003;28;20072;-47
2022/04/07 08:52:02;;;;;;;2.42;0.60;;;14.10;75.40;;;;;;5020683;28;20108;-47
2022/04/07 08:54:30;;;;;;;0.43;0.40;;;14.10;75.30;;;;;;4969209;28;20050;-50
2022/04/07 08:56:57;;;;;;;1.88;0.22;;;14.10;75.70;;;;;;4995236;28;20046;-47
2022/04/07 08:59:23;;;;;;;0.63;0.43;;;14.10;75.80;;;;;;4992179;28;20051;-47
2022/04/07 09:01:50;;;;;;;1.08;0.30;;;14.10;75.80;;;;;;5005091;28;20401;-50
2022/04/07 09:04:21;;;;;;;1.17;0.30;;;14.10;75.90;;;;;;4988790;28;20049;-47
2022/04/07 09:06:54;;;;;;;6.63;0.68;;;14.10;76.20;;;;;;4999020;28;20074;-49
2022/04/07 09:09:22;;;;;;;5.72;0.35;;;14.10;76.10;;;;;;4989920;28;20046;-47
2022/04/07 09:11:56;;;;;;;26.13;2.05;;;14.00;75.00;;;;;;5003169;28;20053;-49
2022/04/07 09:14:23;;;;;;;5.25;0.60;;;13.90;75.60;;;;;;4992646;28;20058;-49
2022/04/07 09:16:55;;;;;;;12.48;0.98;;;13.60;75.60;;;;;;5019228;28;20045;-50
2022/04/07 09:19:23;;;;;;;11.27;1.35;;;13.30;76.70;;;;;;5023075;28;20038;-48
2022/04/07 09:22:10;;;;;;;8.50;0.77;;;13.10;76.90;;;;;;5019804;28;20791;-51
2022/04/07 09:24:38;;;;;;;4.25;0.20;;;12.80;78.30;;;;;;5027734;28;20033;-47
2022/04/07 09:27:09;;;;;;;2.47;0.30;;;12.60;77.70;;;;;;5029746;28;20092;-51
2022/04/07 09:29:42;;;;;;;1.15;0.20;;;12.40;78.50;;;;;;5020976;28;20041;-50
2022/04/07 09:32:19;;;;;;;0.35;0.10;;;12.30;79.40;;;;;;5013373;28;20046;-48
2022/04/07 09:35:00;;;;;;;2.95;0.25;;;12.20;80.70;;;;;;5006549;28;20148;-48
2022/04/07 09:37:29;;;;;;;0.68;0.30;;;12.10;81.10;;;;;;5018237;28;20416;-46
2022/04/07 09:40:14;;;;;;;1.00;0.20;;;12.00;81.50;;;;;;4996133;28;20041;-48
2022/04/07 09:42:44;;;;;;;0.50;0.50;;;12.00;83.00;;;;;;5020868;28;20045;-48
2022/04/07 09:45:12;;;;;;;0.73;0.28;;;12.00;82.50;;;;;;5011355;28;20494;-50
2022/04/07 09:47:42;;;;;;;0.28;0.20;;;12.00;82.70;;;;;;5007626;28;20572;-48
2022/04/07 09:50:31;;;;;;;2.17;0.30;;;12.00;83.10;;;;;;5009530;28;20064;-50
2022/04/07 09:52:58;;;;;;;0.40;0.30;;;12.00;84.10;;;;;;5025531;28;20450;-48
2022/04/07 09:55:37;;;;;;;0.20;0.20;;;12.00;83.10;;;;;;5025918;28;20076;-48
2022/04/07 09:58:07;;;;;;;1.67;0.28;;;12.10;83.40;;;;;;5022418;28;20043;-50
2022/04/07 10:00:35;;;;;;;0.57;0.30;;;12.10;83.50;;;;;;5025184;28;20041;-51
2022/04/07 10:03:03;;;;;;;0.75;0.20;;;12.10;83.70;;;;;;5026237;28;20037;-47
2022/04/07 10:05:31;;;;;;;1.13;0.30;;;12.10;84.00;;;;;;5009641;28;20160;-48
2022/04/07 10:07:58;;;;;;;0.45;0.30;;;12.20;84.30;;;;;;5002619;28;20038;-51
2022/04/07 10:10:25;;;;;;;2.38;0.40;;;12.20;84.50;;;;;;5011059;28;20054;-49
2022/04/07 10:12:52;;;;;;;0.38;0.35;;;12.30;84.70;;;;;;5007988;28;20572;-50
2022/04/07 10:15:19;;;;;;;0.82;0.60;;;12.30;84.70;;;;;;5018627;28;20053;-49
2022/04/07 10:17:46;;;;;;;1.38;0.50;;;12.40;84.80;;;;;;5005535;28;20046;-51
2022/04/07 10:20:19;;;;;;;1.48;0.60;;;12.40;84.80;;;;;;5007959;28;20057;-48
2022/04/07 10:22:52;;;;;;;0.60;0.60;;;12.40;85.10;;;;;;4990786;28;20104;-52
2022/04/07 10:25:19;;;;;;;2.50;0.80;;;12.50;85.30;;;;;;4981900;28;20058;-54
2022/04/07 10:27:52;;;;;;;1.50;0.77;;;12.60;85.70;;;;;;4998340;28;20093;-51
2022/04/07 10:30:20;;;;;;;1.10;0.90;;;12.60;86.30;;;;;;5007935;28;20058;-49
2022/04/07 10:32:54;;;;;;;1.05;0.70;;;12.80;86.80;;;;;;5021281;28;20095;-51
2022/04/07 10:35:30;;;;;;;0.88;0.60;;;12.80;87.00;;;;;;5013257;28;20524;-50
2022/04/07 10:37:58;;;;;;;1.27;0.70;;;13.00;87.60;;;;;;5001617;28;20046;-51
2022/04/07 10:40:50;;;;;;;1.55;0.35;;;13.10;86.90;;;;;;5019107;28;20095;-50
2022/04/07 10:43:22;;;;;;;0.77;0.40;;;13.20;87.10;;;;;;5022654;28;20042;-49
2022/04/07 10:46:02;;;;;;;0.30;0.30;;;13.30;85.90;;;;;;5017645;28;20038;-48
2022/04/07 10:48:31;;;;;;;0.50;0.50;;;13.30;85.20;;;;;;5017091;28;20108;-52
2022/04/07 10:51:05;;;;;;;0.50;0.50;;;13.40;84.30;;;;;;5011247;28;20053;-50
2022/04/07 10:53:39;;;;;;;0.98;0.30;;;13.40;83.10;;;;;;5016682;28;20078;-49
2022/04/07 10:56:08;;;;;;;1.20;0.40;;;13.30;82.40;;;;;;5021104;28;20045;-50
2022/04/07 10:58:52;;;;;;;0.82;0.50;;;13.20;81.80;;;;;;5015427;28;20097;-53
2022/04/07 11:01:31;;;;;;;1.13;0.40;;;13.20;82.00;;;;;;5018424;28;20099;-51
2022/04/07 11:04:25;;;;;;;0.60;0.50;;;13.10;82.40;;;;;;5020147;28;20050;-50
2022/04/07 11:07:07;;;;;;;1.20;0.50;;;13.10;82.70;;;;;;5016797;28;20077;-49
2022/04/07 11:09:43;;;;;;;0.57;0.40;;;13.00;82.30;;;;;;5025890;28;20096;-49
2022/04/07 11:12:22;;;;;;;1.02;0.60;;;13.00;82.00;;;;;;5017394;28;20054;-49
2022/04/07 11:15:13;;;;;;;1.45;0.35;;;13.00;82.20;;;;;;5017103;28;20096;-51
2022/04/07 11:17:43;;;;;;;1.17;0.50;;;12.90;82.30;;;;;;5001440;28;20054;-53
2022/04/07 11:20:15;;;;;;;0.93;0.60;;;12.90;82.00;;;;;;5028600;28;20041;-51
2022/04/07 11:22:46;;;;;;;2.25;0.50;;;12.90;82.10;;;;;;5014683;28;20069;-54
2022/04/07 11:25:14;;;;;;;1.83;0.50;;;12.90;82.80;;;;;;5013106;28;20092;-50
2022/04/07 11:27:45;;;;;;;1.17;0.57;;;13.00;82.50;;;;;;5005844;28;20038;-54
2022/04/07 11:30:13;;;;;;;0.95;0.52;;;13.00;82.90;;;;;;5009020;28;20052;-52
2022/04/07 11:33:18;;;;;;;2.25;0.45;;;13.10;82.30;;;;;;5025443;28;20095;-50
2022/04/07 11:36:06;;;;;;;0.85;0.55;;;13.20;82.10;;;;;;5028806;28;20728;-49
2022/04/07 11:38:52;;;;;;;1.17;0.50;;;13.20;81.30;;;;;;5030859;28;20041;-52
2022/04/07 11:41:19;;;;;;;0.60;0.50;;;13.20;80.90;;;;;;5029104;28;20041;-50
2022/04/07 11:43:47;;;;;;;3.50;0.50;;;13.30;81.30;;;;;;5004989;28;20046;-51
2022/04/07 11:46:24;;;;;;;1.45;0.22;;;13.30;81.90;;;;;;5028441;28;20567;-54
2022/04/07 11:48:59;;;;;;;1.98;0.70;;;13.40;82.40;;;;;;5031323;28;20409;-49
2022/04/07 11:51:26;;;;;;;1.13;0.70;;;13.50;81.70;;;;;;5023126;28;20089;-49
2022/04/07 11:53:55;;;;;;;1.75;0.65;;;13.60;80.60;;;;;;5030146;28;20037;-50
2022/04/07 11:56:27;;;;;;;1.85;0.40;;;13.70;79.80;;;;;;5031144;28;20851;-50
2022/04/07 11:59:11;;;;;;;3.28;0.80;;;13.70;79.70;;;;;;5026966;28;20048;-50
2022/04/07 12:01:46;;;;;;;0.85;0.43;;;13.90;79.50;;;;;;5021638;28;20095;-50
2022/04/07 12:04:13;;;;;;;3.13;0.55;;;13.90;77.50;;;;;;5029098;28;20041;-50
2022/04/07 12:06:45;;;;;;;1.05;0.57;;;14.00;77.90;;;;;;5026243;28;20052;-50
2022/04/07 12:09:14;;;;;;;2.15;0.40;;;14.10;76.10;;;;;;5024869;28;20038;-49
2022/04/07 12:11:42;;;;;;;1.45;0.52;;;14.10;75.80;;;;;;5021976;28;20084;-51
2022/04/07 12:14:11;;;;;;;1.23;0.50;;;14.20;75.50;;;;;;5030906;28;20049;-50
2022/04/07 12:16:49;;;;;;;2.05;0.90;;;14.20;75.30;;;;;;5022000;28;20034;-52
2022/04/07 12:19:19;;;;;;;3.15;0.95;;;14.20;73.10;;;;;;5023957;28;20046;-50
2022/04/07 12:21:54;;;;;;;3.80;0.63;;;14.20;72.80;;;;;;5022364;28;20378;-50
2022/04/07 12:24:26;;;;;;;2.35;0.98;;;14.30;73.20;;;;;;5027493;28;20042;-50
2022/04/07 12:26:55;;;;;;;3.55;1.00;;;14.40;74.00;;;;;;5031282;28;20083;-50
2022/04/07 12:29:25;;;;;;;4.05;0.82;;;14.50;74.70;;;;;;5019686;28;20041;-51
2022/04/07 12:31:58;;;;;;;2.63;0.93;;;14.50;73.80;;;;;;5031388;28;20459;-50
2022/04/07 12:34:27;;;;;;;3.10;0.70;;;14.60;71.30;;;;;;5026826;28;20050;-51
2022/04/07 12:36:55;;;;;;;4.50;0.85;;;14.70;70.60;;;;;;4999311;28;20115;-51
2022/04/07 12:39:31;;;;;;;3.65;0.70;;;14.60;70.90;;;;;;5025252;28;20051;-51
2022/04/07 12:42:05;;;;;;;2.67;1.02;;;14.50;70.50;;;;;;5030462;28;20046;-54
2022/04/07 12:44:35;;;;;;;4.55;1.13;;;14.40;70.30;;;;;;5030709;28;20417;-50
2022/04/07 12:47:13;;;;;;;4.82;1.27;;;14.20;70.10;;;;;;5014958;28;20041;-50
2022/04/07 12:49:40;;;;;;;4.90;1.63;;;14.10;69.30;;;;;;5016510;28;20069;-49
2022/04/07 12:52:18;;;;;;;4.85;1.73;;;13.90;69.90;;;;;;5028997;28;20084;-51
2022/04/07 12:54:54;;;;;;;5.20;1.88;;;13.70;70.40;;;;;;5026852;28;20417;-49
2022/04/07 12:57:21;;;;;;;2.88;1.80;;;13.60;71.00;;;;;;5021659;28;20460;-53
2022/04/07 12:59:56;;;;;;;4.72;1.83;;;13.50;71.60;;;;;;5012371;28;20037;-51
2022/04/07 13:02:24;;;;;;;4.07;1.92;;;13.40;72.20;;;;;;5021263;28;20045;-53